Alghero / Fertilia Airport LIEA

Flugplatz Daten

Name: Alghero / Fertilia Airport

Ident: LIEA

Lat: 40,63209915

Long: 8,290769577

Platzhöhe: 87 ft

IataCode: AHO

City: Alghero

Homepage: http://www.aeroportodialghero.it/home_en.asp

Metar

2021/08/05 13:20
LIEA 051320Z 27011KT 9999 FEW030 27/17 Q1015

Taf

2021/08/05 12:21
TAF LIEA 051100Z 0512/0612 29012KT 9999 FEW040
BECMG 0518/0520 VRB05KT
BECMG 0609/0611 24010KT
Gewünschte Webcam nicht vorhanden? Dann fügen Sie eine hinzu. Sie wird dann so schnell wie möglich freigeschaltet
Url: Title: